createdAt,value
2016-04-28T00:00:01.369Z,0
2016-04-28T00:01:01.137Z,0
2016-04-28T00:02:01.124Z,0
2016-04-28T00:03:01.391Z,0
2016-04-28T00:04:01.192Z,0
2016-04-28T00:05:01.195Z,0
2016-04-28T00:07:00.902Z,0
2016-04-28T00:08:01.141Z,0
2016-04-28T00:09:01.971Z,0
2016-04-28T00:10:00.676Z,0
2016-04-28T00:11:02.726Z,0
2016-04-28T00:12:01.151Z,0
2016-04-28T00:13:01.123Z,0
2016-04-28T00:14:01.110Z,0
2016-04-28T00:15:00.956Z,0
2016-04-28T00:16:01.301Z,0
2016-04-28T00:17:01.180Z,0
2016-04-28T00:18:01.104Z,0
2016-04-28T00:19:01.107Z,0
2016-04-28T00:20:01.250Z,0
2016-04-28T00:21:01.331Z,0
2016-04-28T00:22:01.537Z,0
2016-04-28T00:23:01.056Z,0
2016-04-28T00:24:15.386Z,0
2016-04-28T00:25:01.545Z,0
2016-04-28T00:26:01.689Z,0
2016-04-28T00:27:15.411Z,0
2016-04-28T00:28:01.678Z,0
2016-04-28T00:29:01.368Z,0
2016-04-28T00:30:15.169Z,0
2016-04-28T00:31:01.139Z,0
2016-04-28T00:32:01.095Z,0
2016-04-28T00:33:01.113Z,0
2016-04-28T00:34:01.100Z,0
2016-04-28T00:35:01.088Z,0
2016-04-28T00:36:01.074Z,0
2016-04-28T00:37:01.077Z,0
2016-04-28T00:38:01.080Z,0
2016-04-28T00:39:01.083Z,0
2016-04-28T00:40:01.101Z,0
2016-04-28T00:41:00.744Z,0
2016-04-28T00:42:02.356Z,0
2016-04-28T00:43:01.282Z,0
2016-04-28T00:44:01.127Z,0
2016-04-28T00:45:01.271Z,0
2016-04-28T00:46:01.039Z,0
2016-04-28T00:47:01.292Z,0
2016-04-28T00:48:00.623Z,0
2016-04-28T00:49:15.156Z,0
2016-04-28T00:50:01.065Z,0
2016-04-28T00:51:01.053Z,0
2016-04-28T00:52:01.274Z,0
2016-04-28T00:53:01.542Z,0
2016-04-28T00:54:01.076Z,0
2016-04-28T00:55:01.017Z,0
2016-04-28T00:56:01.972Z,0
2016-04-28T00:57:01.428Z,0
2016-04-28T00:58:15.181Z,0
2016-04-28T00:59:00.292Z,0
2016-04-28T01:00:01.108Z,0
2016-04-28T01:01:01.080Z,0
2016-04-28T01:02:15.129Z,0
2016-04-28T01:03:01.303Z,0
2016-04-28T01:04:29.603Z,0
2016-04-28T01:05:01.247Z,0
2016-04-28T01:06:01.061Z,0
2016-04-28T01:07:01.064Z,0
2016-04-28T01:08:01.020Z,0
2016-04-28T01:10:00.776Z,0
2016-04-28T01:11:02.606Z,0
2016-04-28T01:12:00.593Z,0
2016-04-28T01:13:01.065Z,0
2016-04-28T01:14:01.068Z,0
2016-04-28T01:15:01.070Z,0
2016-04-28T01:16:01.245Z,0
2016-04-28T01:17:00.576Z,0
2016-04-28T01:18:01.251Z,0
2016-04-28T01:19:15.331Z,0
2016-04-28T01:20:01.224Z,0
2016-04-28T01:21:01.226Z,0
2016-04-28T01:22:15.323Z,0
2016-04-28T01:23:01.904Z,0
2016-04-28T01:24:01.203Z,0
2016-04-28T01:25:01.050Z,0
2016-04-28T01:26:14.990Z,0
2016-04-28T01:27:01.056Z,0
2016-04-28T01:28:01.199Z,0
2016-04-28T01:29:01.233Z,0
2016-04-28T01:30:01.236Z,0
2016-04-28T01:31:01.192Z,0
2016-04-28T01:32:01.038Z,0
2016-04-28T01:33:01.040Z,0
2016-04-28T01:34:00.996Z,0
2016-04-28T01:35:01.014Z,0
2016-04-28T01:36:01.189Z,0
2016-04-28T01:37:01.019Z,0
2016-04-28T01:38:00.992Z,0
2016-04-28T01:39:15.104Z,0
2016-04-28T01:40:01.013Z,0
2016-04-28T01:41:18.937Z,0
2016-04-28T01:42:01.080Z,0
2016-04-28T01:43:00.974Z,0
2016-04-28T01:44:01.196Z,0
2016-04-28T01:45:01.229Z,0
2016-04-28T01:46:15.090Z,0
2016-04-28T01:47:01.032Z,0
2016-04-28T01:48:00.987Z,0
2016-04-28T01:49:01.021Z,0
2016-04-28T01:50:01.023Z,0
2016-04-28T01:51:00.980Z,0
2016-04-28T01:52:01.170Z,0
2016-04-28T01:53:01.172Z,0
2016-04-28T01:54:00.988Z,0
2016-04-28T01:55:01.209Z,0
2016-04-28T01:56:01.509Z,0
2016-04-28T01:57:01.980Z,0
2016-04-28T01:58:01.389Z,0
2016-04-28T02:00:00.973Z,0
2016-04-28T02:01:14.600Z,0
2016-04-28T02:02:01.461Z,0
2016-04-28T02:03:01.169Z,0
2016-04-28T02:05:00.674Z,0
2016-04-28T02:06:00.941Z,0
2016-04-28T02:07:01.007Z,0
2016-04-28T02:08:00.978Z,0
2016-04-28T02:09:01.388Z,0
2016-04-28T02:10:15.671Z,0
2016-04-28T02:11:00.549Z,0
2016-04-28T02:12:00.708Z,0
2016-04-28T02:13:00.976Z,0
2016-04-28T02:15:01.153Z,0
2016-04-28T02:16:01.188Z,0
2016-04-28T02:17:01.377Z,0
2016-04-28T02:18:01.177Z,0
2016-04-28T02:19:01.180Z,0
2016-04-28T02:20:01.182Z,0
2016-04-28T02:21:01.170Z,0
2016-04-28T02:22:00.984Z,0
2016-04-28T02:23:01.181Z,0
2016-04-28T02:24:01.184Z,0
2016-04-28T02:25:00.937Z,0
2016-04-28T02:26:00.985Z,0
2016-04-28T02:27:01.379Z,0
2016-04-28T02:28:00.959Z,0
2016-04-28T02:29:01.401Z,0
2016-04-28T02:30:00.934Z,0
2016-04-28T02:31:01.187Z,0
2016-04-28T02:32:00.955Z,0
2016-04-28T02:33:01.051Z,0
2016-04-28T02:34:02.132Z,0
2016-04-28T02:35:01.150Z,0
2016-04-28T02:36:02.310Z,0
2016-04-28T02:37:15.594Z,0
2016-04-28T02:38:02.081Z,0
2016-04-28T02:39:01.114Z,0
2016-04-28T02:40:04.679Z,0
2016-04-28T02:41:02.058Z,0
2016-04-28T02:42:05.404Z,0
2016-04-28T02:43:01.110Z,0
2016-04-28T02:44:08.502Z,0
2016-04-28T02:45:00.912Z,0
2016-04-28T02:46:03.633Z,0
2016-04-28T02:47:14.996Z,0
2016-04-28T02:48:00.935Z,0
2016-04-28T02:49:00.908Z,0
2016-04-28T02:50:00.925Z,0
2016-04-28T02:51:01.115Z,0
2016-04-28T02:52:00.915Z,0
2016-04-28T02:53:00.901Z,0
2016-04-28T02:54:00.890Z,0
2016-04-28T02:55:00.923Z,0
2016-04-28T02:56:00.926Z,0
2016-04-28T02:57:01.101Z,0
2016-04-28T02:58:00.900Z,0
2016-04-28T02:59:00.903Z,0
2016-04-28T03:00:00.889Z,0
2016-04-28T03:01:00.893Z,0
2016-04-28T03:02:00.614Z,0
2016-04-28T03:04:00.884Z,0
2016-04-28T03:05:01.106Z,0
2016-04-28T03:06:01.078Z,0
2016-04-28T03:07:00.877Z,0
2016-04-28T03:08:00.395Z,4
2016-04-28T03:09:00.851Z,4
2016-04-28T03:10:00.854Z,4
2016-04-28T03:11:01.669Z,0
2016-04-28T03:12:02.109Z,4
2016-04-28T03:13:00.300Z,4
2016-04-28T03:14:00.896Z,4
2016-04-28T03:15:00.867Z,8
2016-04-28T03:16:01.089Z,8
2016-04-28T03:17:00.341Z,8
2016-04-28T03:18:01.032Z,8
2016-04-28T03:19:00.847Z,12
2016-04-28T03:20:01.037Z,16
2016-04-28T03:21:00.352Z,16
2016-04-28T03:22:00.840Z,20
2016-04-28T03:23:00.827Z,20
2016-04-28T03:25:00.848Z,28
2016-04-28T03:26:14.944Z,32
2016-04-28T03:27:00.618Z,36
2016-04-28T03:28:00.809Z,44
2016-04-28T03:29:00.811Z,48
2016-04-28T03:30:01.033Z,60
2016-04-28T03:31:01.020Z,64
2016-04-28T03:32:00.867Z,76
2016-04-28T03:33:00.806Z,84
2016-04-28T03:34:00.809Z,96
2016-04-28T03:35:01.031Z,108
2016-04-28T03:36:00.986Z,120
2016-04-28T03:37:00.989Z,140
2016-04-28T03:39:00.807Z,172
2016-04-28T03:40:00.997Z,192
2016-04-28T03:41:01.171Z,208
2016-04-28T03:42:01.269Z,228
2016-04-28T03:43:00.786Z,252
2016-04-28T03:44:01.445Z,280
2016-04-28T03:47:00.750Z,368
2016-04-28T03:48:00.799Z,404
2016-04-28T03:49:00.756Z,436
2016-04-28T03:50:00.758Z,476
2016-04-28T03:51:00.730Z,516
2016-04-28T03:52:01.388Z,552
2016-04-28T03:53:00.782Z,596
2016-04-28T03:54:00.754Z,636
2016-04-28T03:55:00.787Z,684
2016-04-28T03:56:00.649Z,736
2016-04-28T03:57:01.324Z,788
2016-04-28T03:58:00.765Z,844
2016-04-28T03:59:00.954Z,904
2016-04-28T04:00:00.957Z,968
2016-04-28T04:01:00.741Z,1028
2016-04-28T04:02:00.713Z,1092
2016-04-28T04:03:00.715Z,1156
2016-04-28T04:04:00.765Z,1212
2016-04-28T04:05:00.737Z,1276
2016-04-28T04:06:00.723Z,1340
2016-04-28T04:07:01.148Z,1412
2016-04-28T04:08:00.697Z,1488
2016-04-28T04:09:00.716Z,1564
2016-04-28T04:10:00.719Z,1648
2016-04-28T04:11:00.722Z,1724
2016-04-28T04:12:00.724Z,1796
2016-04-28T04:13:00.930Z,1864
2016-04-28T04:14:00.714Z,1944
2016-04-28T04:15:14.825Z,2048
2016-04-28T04:15:59.735Z,2120
2016-04-28T04:17:01.159Z,2228
2016-04-28T04:18:00.709Z,2328
2016-04-28T04:19:01.118Z,2416
2016-04-28T04:20:00.401Z,2488
2016-04-28T04:21:00.670Z,2564
2016-04-28T04:22:01.079Z,2652
2016-04-28T04:23:00.222Z,2740
2016-04-28T04:24:00.693Z,2848
2016-04-28T04:25:00.666Z,2960
2016-04-28T04:26:00.668Z,3044
2016-04-28T04:27:00.983Z,3116
2016-04-28T04:28:00.876Z,3200
2016-04-28T04:29:00.645Z,3280
2016-04-28T04:29:59.913Z,3356
2016-04-28T04:31:00.868Z,3432
2016-04-28T04:32:00.856Z,3500
2016-04-28T04:33:00.843Z,3560
2016-04-28T04:34:00.658Z,3628
2016-04-28T04:35:00.161Z,3648
2016-04-28T04:36:14.741Z,3672
2016-04-28T04:37:00.667Z,3688
2016-04-28T04:38:00.637Z,3720
2016-04-28T04:39:01.093Z,3764
2016-04-28T04:40:00.815Z,3804
2016-04-28T04:41:59.742Z,3912
2016-04-28T04:43:00.650Z,3956
2016-04-28T04:44:00.622Z,3980
2016-04-28T04:45:00.625Z,3988
2016-04-28T04:46:00.316Z,3952
2016-04-28T04:47:00.614Z,3880
2016-04-28T04:48:14.711Z,3772
2016-04-28T04:49:00.589Z,3724
2016-04-28T04:50:00.607Z,3708
2016-04-28T04:51:14.735Z,3740
2016-04-28T04:52:00.628Z,3752
2016-04-28T04:53:14.897Z,3744
2016-04-28T04:54:00.587Z,3712
2016-04-28T04:55:00.855Z,3720
2016-04-28T04:56:01.093Z,3728
2016-04-28T04:57:00.548Z,3748
2016-04-28T04:58:00.598Z,3764
2016-04-28T04:58:59.896Z,3796
2016-04-28T05:00:00.619Z,3804
2016-04-28T05:01:00.824Z,3832
2016-04-28T05:02:00.796Z,3868
2016-04-28T05:03:00.611Z,3900
2016-04-28T05:04:00.582Z,3928
2016-04-28T05:05:00.570Z,3972
2016-04-28T05:06:00.306Z,3996
2016-04-28T05:07:00.778Z,4040
2016-04-28T05:08:00.656Z,4068
2016-04-28T05:09:00.596Z,4096
2016-04-28T05:10:00.567Z,4132
2016-04-28T05:11:00.288Z,4160
2016-04-28T05:12:00.963Z,4180
2016-04-28T05:13:00.810Z,4220
2016-04-28T05:14:00.562Z,4292
2016-04-28T05:15:00.580Z,4392
2016-04-28T05:15:59.818Z,4520
2016-04-28T05:17:00.555Z,4652
2016-04-28T05:19:00.575Z,4872
2016-04-28T05:20:00.079Z,5004
2016-04-28T05:21:00.768Z,5124
2016-04-28T05:22:00.584Z,5232
2016-04-28T05:23:00.743Z,5296
2016-04-28T05:24:00.745Z,5336
2016-04-28T05:25:00.560Z,5416
2016-04-28T05:26:00.595Z,5492
2016-04-28T05:27:00.519Z,5572
2016-04-28T05:28:00.568Z,5648
2016-04-28T05:29:00.588Z,5636
2016-04-28T05:30:00.543Z,5588
2016-04-28T05:31:00.546Z,5516
2016-04-28T05:32:00.548Z,5432
2016-04-28T05:33:00.755Z,5348
2016-04-28T05:34:14.631Z,5236
2016-04-28T05:35:00.979Z,5196
2016-04-28T05:36:00.559Z,5128
2016-04-28T05:36:59.842Z,5308
2016-04-28T05:38:00.533Z,5204
2016-04-28T05:39:00.537Z,5080
2016-04-28T05:40:00.273Z,4896
2016-04-28T05:41:14.166Z,4932
2016-04-28T05:42:01.356Z,4944
2016-04-28T05:43:00.719Z,5044
2016-04-28T05:44:00.753Z,5136
2016-04-28T05:45:01.209Z,5276
2016-04-28T05:46:00.555Z,5388
2016-04-28T05:47:00.760Z,5420
2016-04-28T05:48:00.561Z,5460
2016-04-28T05:48:59.781Z,5504
2016-04-28T05:50:00.519Z,5548
2016-04-28T05:51:00.536Z,5584
2016-04-28T05:52:00.540Z,5588
2016-04-28T05:53:00.542Z,5692
2016-04-28T05:54:00.764Z,5860
2016-04-28T05:55:00.610Z,5912
2016-04-28T05:56:00.550Z,6008
2016-04-28T05:57:01.803Z,6252
2016-04-28T05:58:00.524Z,6392
2016-04-28T05:59:00.730Z,6612
2016-04-28T06:00:00.733Z,6820
2016-04-28T06:01:00.773Z,7020
2016-04-28T06:02:00.770Z,7148
2016-04-28T06:03:00.610Z,7288
2016-04-28T06:04:00.668Z,7448
2016-04-28T06:05:00.900Z,7716
2016-04-28T06:06:01.017Z,7940
2016-04-28T06:07:00.753Z,8140
2016-04-28T06:08:00.786Z,8360
2016-04-28T06:09:00.335Z,8604
2016-04-28T06:10:00.789Z,8908
2016-04-28T06:11:01.040Z,9172
2016-04-28T06:13:00.883Z,9536
2016-04-28T06:14:01.047Z,9596
2016-04-28T06:15:00.821Z,9616
2016-04-28T06:16:14.937Z,9484
2016-04-28T06:17:01.020Z,9388
2016-04-28T06:18:01.243Z,9440
2016-04-28T06:19:00.826Z,9456
2016-04-28T06:20:00.831Z,9552
2016-04-28T06:21:00.866Z,9488
2016-04-28T06:22:00.370Z,9444
2016-04-28T06:23:00.842Z,9556
2016-04-28T06:24:00.876Z,9768
2016-04-28T06:25:00.864Z,9972
2016-04-28T06:26:00.837Z,10228
2016-04-28T06:27:00.995Z,10500
2016-04-28T06:28:00.484Z,10668
2016-04-28T06:29:01.048Z,10844
2016-04-28T06:30:00.865Z,11052
2016-04-28T06:31:00.915Z,11288
2016-04-28T06:32:00.870Z,11420
2016-04-28T06:33:00.952Z,11648
2016-04-28T06:34:01.063Z,11776
2016-04-28T06:35:00.847Z,11976
2016-04-28T06:36:00.866Z,12220
2016-04-28T06:37:01.134Z,12312
2016-04-28T06:38:00.370Z,12276
2016-04-28T06:39:00.936Z,12188
2016-04-28T06:40:00.907Z,12144
2016-04-28T06:41:01.285Z,12244
2016-04-28T06:42:01.084Z,12316
2016-04-28T06:43:00.853Z,12380
2016-04-28T06:44:01.106Z,12668
2016-04-28T06:45:00.873Z,12756
2016-04-28T06:46:01.080Z,13016
2016-04-28T06:47:00.895Z,12928
2016-04-28T06:48:00.898Z,13016
2016-04-28T06:49:00.884Z,13604
2016-04-28T06:50:01.091Z,13832
2016-04-28T06:51:00.889Z,13740
2016-04-28T06:52:00.878Z,13948
2016-04-28T06:53:00.661Z,14232
2016-04-28T06:54:00.898Z,14540
2016-04-28T06:55:00.900Z,14776
2016-04-28T06:56:00.888Z,15024
2016-04-28T06:57:00.406Z,15296
2016-04-28T06:58:00.893Z,13556
2016-04-28T06:59:00.958Z,12964
2016-04-28T07:00:00.913Z,12172
2016-04-28T07:01:00.932Z,12048
2016-04-28T07:02:00.920Z,11148
2016-04-28T07:03:00.969Z,10816
2016-04-28T07:04:00.940Z,10472
2016-04-28T07:05:01.632Z,10364
2016-04-28T07:06:00.946Z,11336
2016-04-28T07:07:00.948Z,10484
2016-04-28T07:08:00.920Z,10588
2016-04-28T07:09:00.970Z,10572
2016-04-28T07:10:01.175Z,9908
2016-04-28T07:11:00.960Z,9784
2016-04-28T07:12:00.681Z,9868
2016-04-28T07:13:00.699Z,9164
2016-04-28T07:14:00.937Z,8948
2016-04-28T07:15:00.939Z,8800
2016-04-28T07:16:01.176Z,8980
2016-04-28T07:17:00.928Z,9812
2016-04-28T07:18:01.150Z,10756
2016-04-28T07:19:00.606Z,10488
2016-04-28T07:20:01.202Z,9836
2016-04-28T07:21:00.205Z,9632
2016-04-28T07:22:00.848Z,9956
2016-04-28T07:23:01.415Z,10420
2016-04-28T07:24:00.965Z,11260
2016-04-28T07:25:01.404Z,11872
2016-04-28T07:26:01.173Z,12864
2016-04-28T07:28:01.694Z,12656
2016-04-28T07:29:01.039Z,13044
2016-04-28T07:30:01.199Z,11984
2016-04-28T07:31:00.858Z,11396
2016-04-28T07:32:01.267Z,12168
2016-04-28T07:34:01.242Z,12776
2016-04-28T07:35:01.025Z,13688
2016-04-28T07:36:01.012Z,12736
2016-04-28T07:37:01.046Z,11936
2016-04-28T07:38:01.049Z,11364
2016-04-28T07:39:01.223Z,13632
2016-04-28T07:40:01.038Z,13204
2016-04-28T07:41:01.041Z,14616
2016-04-28T07:42:01.638Z,14852
2016-04-28T07:43:01.218Z,17120
2016-04-28T07:44:00.283Z,15084
2016-04-28T07:45:02.286Z,14780
2016-04-28T07:46:01.305Z,14520
2016-04-28T07:47:01.261Z,14868
2016-04-28T07:48:01.294Z,15424
2016-04-28T07:49:01.062Z,17152
2016-04-28T07:50:01.065Z,17888
2016-04-28T07:51:01.271Z,18464
2016-04-28T07:52:01.070Z,18624
2016-04-28T07:53:01.682Z,17504
2016-04-28T07:54:01.107Z,16960
2016-04-28T07:55:01.095Z,16864
2016-04-28T07:56:01.379Z,16640
2016-04-28T07:57:01.319Z,17056
2016-04-28T07:58:02.931Z,17152
2016-04-28T07:59:01.496Z,17408
2016-04-28T08:00:00.608Z,17248
2016-04-28T08:01:01.329Z,15900
2016-04-28T08:02:01.129Z,16928
2016-04-28T08:03:00.991Z,17248
2016-04-28T08:04:01.150Z,17664
2016-04-28T08:05:15.433Z,17312
2016-04-28T08:06:01.452Z,16408
2016-04-28T08:07:01.095Z,15964
2016-04-28T08:08:01.798Z,16048
2016-04-28T08:09:01.128Z,16288
2016-04-28T08:10:01.131Z,16768
2016-04-28T08:11:01.134Z,15860
2016-04-28T08:12:02.370Z,15488
2016-04-28T08:13:03.982Z,15988
2016-04-28T08:14:01.141Z,16928
2016-04-28T08:15:01.379Z,16420
2016-04-28T08:16:01.037Z,16196
2016-04-28T08:17:01.353Z,16896
2016-04-28T08:18:01.356Z,17280
2016-04-28T08:19:01.812Z,19072
2016-04-28T08:20:01.173Z,18880
2016-04-28T08:21:01.503Z,17248
2016-04-28T08:22:15.444Z,16240
2016-04-28T08:23:01.213Z,15100
2016-04-28T08:24:01.216Z,14012
2016-04-28T08:25:01.264Z,13392
2016-04-28T08:26:01.267Z,13312
2016-04-28T08:27:01.817Z,14532
2016-04-28T08:28:01.758Z,15412
2016-04-28T08:29:01.636Z,16136
2016-04-28T08:30:01.247Z,16288
2016-04-28T08:31:15.766Z,18656
2016-04-28T08:32:01.705Z,19296
2016-04-28T08:33:01.458Z,18688
2016-04-28T08:34:01.305Z,16992
2016-04-28T08:35:01.260Z,15680
2016-04-28T08:36:01.482Z,13672
2016-04-28T08:37:01.297Z,13148
2016-04-28T08:38:01.706Z,13672
2016-04-28T08:39:01.334Z,13600
2016-04-28T08:40:01.273Z,14160
2016-04-28T08:41:01.746Z,13288
2016-04-28T08:42:01.952Z,14432
2016-04-28T08:43:01.985Z,14628
2016-04-28T08:44:01.316Z,15076
2016-04-28T08:45:01.522Z,15016
2016-04-28T08:46:01.337Z,16224
2016-04-28T08:47:01.496Z,16608
2016-04-28T08:48:01.920Z,15336
2016-04-28T08:49:01.970Z,15112
2016-04-28T08:50:01.754Z,16420
2016-04-28T08:51:15.460Z,16600
2016-04-28T08:52:01.525Z,15476
2016-04-28T08:53:01.794Z,15128
2016-04-28T08:54:01.342Z,18848
2016-04-28T08:55:01.955Z,21600
2016-04-28T08:56:01.598Z,21984
2016-04-28T08:57:16.070Z,22816
2016-04-28T08:58:01.510Z,22944
2016-04-28T08:59:01.356Z,22592
2016-04-28T09:00:01.624Z,21472
2016-04-28T09:01:03.721Z,19296
2016-04-28T09:02:01.396Z,18496
2016-04-28T09:03:01.805Z,18496
2016-04-28T09:04:01.417Z,17952
2016-04-28T09:05:01.419Z,16992
2016-04-28T09:06:01.641Z,15720
2016-04-28T09:07:01.425Z,14776
2016-04-28T09:08:01.427Z,13784
2016-04-28T09:09:01.430Z,12832
2016-04-28T09:10:15.745Z,12224
2016-04-28T09:11:01.998Z,12064
2016-04-28T09:12:03.438Z,12136
2016-04-28T09:13:02.582Z,12204
2016-04-28T09:14:01.507Z,12088
2016-04-28T09:15:01.478Z,11804
2016-04-28T09:16:15.559Z,12808
2016-04-28T09:17:01.951Z,13112
2016-04-28T09:18:01.236Z,12944
2016-04-28T09:19:02.754Z,13968
2016-04-28T09:21:01.744Z,15384
2016-04-28T09:22:01.715Z,15408
2016-04-28T09:23:02.295Z,15132
2016-04-28T09:24:01.502Z,14480
2016-04-28T09:25:01.598Z,13892
2016-04-28T09:26:02.351Z,14128
2016-04-28T09:27:05.744Z,14676
2016-04-28T09:28:03.466Z,15820
2016-04-28T09:29:01.546Z,16284
2016-04-28T09:30:01.986Z,16768
2016-04-28T09:31:05.332Z,16832
2016-04-28T09:32:02.194Z,16512
2016-04-28T09:33:01.620Z,15780
2016-04-28T09:34:02.044Z,15228
2016-04-28T09:35:01.749Z,15156
2016-04-28T09:36:01.565Z,15120
2016-04-28T09:38:00.883Z,16084
2016-04-28T09:39:01.588Z,18080
2016-04-28T09:40:01.591Z,20128
2016-04-28T09:41:01.172Z,21600
2016-04-28T09:42:05.081Z,22624
2016-04-28T09:43:02.069Z,24000
2016-04-28T09:44:01.618Z,24416
2016-04-28T09:45:01.652Z,23072
2016-04-28T09:46:02.061Z,21664
2016-04-28T09:47:03.189Z,21216
2016-04-28T09:48:15.722Z,22144
2016-04-28T09:49:01.647Z,22944
2016-04-28T09:50:01.931Z,23904
2016-04-28T09:51:01.403Z,23936
2016-04-28T09:52:01.670Z,23808
2016-04-28T09:53:02.314Z,23456
2016-04-28T09:54:01.129Z,23968
2016-04-28T09:55:01.444Z,24064
2016-04-28T09:56:01.713Z,23168
2016-04-28T09:57:01.293Z,21696
2016-04-28T09:58:01.936Z,21728
2016-04-28T09:59:01.689Z,23648
2016-04-28T10:00:01.739Z,26016
2016-04-28T10:01:01.227Z,26752
2016-04-28T10:02:01.713Z,26976
2016-04-28T10:03:01.716Z,27616
2016-04-28T10:04:02.156Z,27616
2016-04-28T10:05:01.940Z,27648
2016-04-28T10:06:01.771Z,26400
2016-04-28T10:07:01.789Z,25824
2016-04-28T10:08:01.792Z,25024
2016-04-28T10:09:01.764Z,22976
2016-04-28T10:10:01.813Z,21152
2016-04-28T10:11:01.816Z,20608
2016-04-28T10:12:02.788Z,22368
2016-04-28T10:13:02.601Z,23168
2016-04-28T10:14:02.042Z,21504
2016-04-28T10:15:01.843Z,21280
2016-04-28T10:16:02.298Z,21664
2016-04-28T10:17:01.815Z,20672
2016-04-28T10:18:02.084Z,21440
2016-04-28T10:19:15.946Z,21600
2016-04-28T10:21:01.890Z,20256
2016-04-28T10:22:02.345Z,20320
2016-04-28T10:23:01.426Z,20608
2016-04-28T10:24:01.913Z,20800
2016-04-28T10:25:02.292Z,21888
2016-04-28T10:26:02.137Z,23680
2016-04-28T10:27:02.218Z,22144
2016-04-28T10:28:02.174Z,19040
2016-04-28T10:29:01.942Z,17152
2016-04-28T10:30:02.164Z,15800
2016-04-28T10:31:01.947Z,14968
2016-04-28T10:32:02.388Z,14216
2016-04-28T10:33:16.063Z,13212
2016-04-28T10:34:01.986Z,12636
2016-04-28T10:35:02.021Z,11952
2016-04-28T10:36:01.289Z,11484
2016-04-28T10:37:02.011Z,10972
2016-04-28T10:38:02.061Z,10012
2016-04-28T10:39:02.046Z,9968
2016-04-28T10:40:02.034Z,10128
2016-04-28T10:41:02.068Z,10020
2016-04-28T10:42:04.821Z,10220
2016-04-28T10:43:02.448Z,10896
2016-04-28T10:44:02.060Z,12296
2016-04-28T10:45:02.266Z,13552
2016-04-28T10:46:02.066Z,14872
2016-04-28T10:47:02.132Z,14344
2016-04-28T10:48:02.118Z,13268
2016-04-28T10:49:02.090Z,12628
2016-04-28T10:50:02.109Z,12808
2016-04-28T10:51:02.751Z,13252
2016-04-28T10:52:02.145Z,14160
2016-04-28T10:53:02.350Z,15240
2016-04-28T10:54:02.165Z,16448
2016-04-28T10:55:02.168Z,16960
2016-04-28T10:56:02.593Z,15812
2016-04-28T10:57:03.189Z,14184
2016-04-28T10:58:16.255Z,12960
2016-04-28T10:59:02.351Z,12220
2016-04-28T11:00:02.197Z,11408
2016-04-28T11:01:02.216Z,11336
2016-04-28T11:02:16.578Z,11376
2016-04-28T11:03:02.425Z,11756
2016-04-28T11:04:02.208Z,12224
2016-04-28T11:05:02.836Z,12360
2016-04-28T11:06:16.291Z,12672
2016-04-28T11:07:02.450Z,13232
2016-04-28T11:08:02.282Z,14404
2016-04-28T11:09:02.284Z,16288
2016-04-28T11:10:02.427Z,19776
2016-04-28T11:11:02.352Z,20512
2016-04-28T11:12:02.964Z,17376
2016-04-28T11:13:01.982Z,14548
2016-04-28T11:14:02.266Z,12596
2016-04-28T11:15:16.082Z,11184
2016-04-28T11:16:02.506Z,10244
2016-04-28T11:17:02.524Z,9880
2016-04-28T11:18:02.543Z,10316
2016-04-28T11:19:02.357Z,12188
2016-04-28T11:20:02.360Z,14564
2016-04-28T11:21:02.513Z,15720
2016-04-28T11:22:02.517Z,16416
2016-04-28T11:23:02.348Z,16192
2016-04-28T11:24:02.350Z,15716
2016-04-28T11:25:02.353Z,15744
2016-04-28T11:27:02.717Z,17952
2016-04-28T11:28:05.283Z,20352
2016-04-28T11:29:02.379Z,22528
2016-04-28T11:30:02.585Z,24192
2016-04-28T11:31:02.399Z,24384
2016-04-28T11:33:02.406Z,20928
2016-04-28T11:34:02.408Z,18752
2016-04-28T11:35:02.910Z,16040
2016-04-28T11:36:02.429Z,14052
2016-04-28T11:37:02.415Z,12512
2016-04-28T11:38:02.434Z,12628
2016-04-28T11:39:02.452Z,12116
2016-04-28T11:40:16.799Z,12532
2016-04-28T11:41:02.443Z,13352
2016-04-28T11:43:02.917Z,14096
2016-04-28T11:44:02.701Z,14932
2016-04-28T11:45:02.704Z,15784
2016-04-28T11:46:02.471Z,16352
2016-04-28T11:47:02.771Z,17216
2016-04-28T11:48:02.774Z,17920
2016-04-28T11:49:03.167Z,21024
2016-04-28T11:50:02.514Z,25344
2016-04-28T11:51:02.610Z,26560
2016-04-28T11:52:02.520Z,24640
2016-04-28T11:53:02.037Z,21952
2016-04-28T11:54:02.539Z,19072
2016-04-28T11:55:02.886Z,16768
2016-04-28T11:56:02.780Z,14568
2016-04-28T11:57:02.673Z,13324
2016-04-28T11:58:02.661Z,13056
2016-04-28T11:59:02.600Z,13720
2016-04-28T12:00:16.681Z,15120
2016-04-28T12:01:02.622Z,15420
2016-04-28T12:02:02.999Z,15020
2016-04-28T12:03:03.049Z,14132
2016-04-28T12:04:02.644Z,13216
2016-04-28T12:05:03.507Z,13672
2016-04-28T12:06:02.838Z,14508
2016-04-28T12:07:30.872Z,17952
2016-04-28T12:08:16.796Z,19680
2016-04-28T12:09:16.768Z,18912
2016-04-28T12:10:02.910Z,17312
2016-04-28T12:11:02.898Z,15716
2016-04-28T12:12:03.026Z,14196
2016-04-28T12:13:17.435Z,13116
2016-04-28T12:14:02.609Z,13348
2016-04-28T12:15:02.971Z,13552
2016-04-28T12:16:17.068Z,11136
2016-04-28T12:17:01.977Z,9764
2016-04-28T12:18:02.011Z,10088
2016-04-28T12:19:02.764Z,12452
2016-04-28T12:20:03.001Z,13364
2016-04-28T12:21:17.316Z,11528
2016-04-28T12:22:02.818Z,10196
2016-04-28T12:23:17.103Z,8872
2016-04-28T12:24:02.808Z,8612
2016-04-28T12:25:02.811Z,8692
2016-04-28T12:26:03.203Z,8980
2016-04-28T12:27:03.378Z,9188
2016-04-28T12:28:03.006Z,9376
2016-04-28T12:29:03.072Z,9256
2016-04-28T12:30:02.887Z,9668
2016-04-28T12:31:02.921Z,10996
2016-04-28T12:32:02.908Z,12332
2016-04-28T12:33:17.255Z,11876
2016-04-28T12:34:02.930Z,11972
2016-04-28T12:35:02.915Z,12168
2016-04-28T12:36:03.090Z,12152
2016-04-28T12:37:02.171Z,11648
2016-04-28T12:38:03.361Z,11036
2016-04-28T12:39:03.099Z,10904
2016-04-28T12:40:03.055Z,11312
2016-04-28T12:41:03.057Z,11572
2016-04-28T12:43:04.000Z,12872
2016-04-28T12:44:03.238Z,13516
2016-04-28T12:45:03.208Z,14764
2016-04-28T12:46:03.007Z,15508
2016-04-28T12:47:03.214Z,14100
2016-04-28T12:48:03.310Z,12516
2016-04-28T12:49:03.047Z,11968
2016-04-28T12:50:02.362Z,12060
2016-04-28T12:51:16.693Z,11044
2016-04-28T12:52:03.243Z,10108
2016-04-28T12:53:03.308Z,9276
2016-04-28T12:54:03.076Z,8308
2016-04-28T12:55:03.142Z,8052
2016-04-28T12:56:03.675Z,10484
2016-04-28T12:57:03.412Z,12932
2016-04-28T12:58:03.258Z,12772
2016-04-28T12:59:06.152Z,11720
2016-04-28T13:00:03.420Z,12052
2016-04-28T13:01:17.439Z,13408
2016-04-28T13:02:03.333Z,14928
2016-04-28T13:03:02.663Z,16256
2016-04-28T13:04:03.447Z,17536
2016-04-28T13:05:03.169Z,15640
2016-04-28T13:06:03.202Z,12124
2016-04-28T13:07:03.205Z,11204
2016-04-28T13:08:03.411Z,11704
2016-04-28T13:09:03.383Z,12532
2016-04-28T13:10:03.479Z,13376
2016-04-28T13:11:03.482Z,13464
2016-04-28T13:12:03.438Z,14456
2016-04-28T13:13:04.143Z,14768
2016-04-28T13:14:03.490Z,14580
2016-04-28T13:15:03.539Z,14132
2016-04-28T13:16:03.276Z,13504
2016-04-28T13:17:03.310Z,14000
2016-04-28T13:18:03.532Z,13504
2016-04-28T13:19:04.378Z,13308
2016-04-28T13:20:03.287Z,12124
2016-04-28T13:21:03.742Z,12480
2016-04-28T13:22:03.355Z,12508
2016-04-28T13:23:03.576Z,11672
2016-04-28T13:24:03.376Z,11860
2016-04-28T13:25:03.503Z,11076
2016-04-28T13:26:03.803Z,10280
2016-04-28T13:27:02.947Z,9696
2016-04-28T13:28:03.089Z,9356
2016-04-28T13:29:03.140Z,9592
2016-04-28T13:30:03.501Z,8764
2016-04-28T13:31:03.426Z,8108
2016-04-28T13:32:03.460Z,7876
2016-04-28T13:33:03.666Z,8660
2016-04-28T13:34:03.386Z,8244
2016-04-28T13:35:03.453Z,7972
2016-04-28T13:36:03.455Z,7912
2016-04-28T13:37:17.786Z,7832
2016-04-28T13:38:17.757Z,7768
2016-04-28T13:39:03.760Z,7704
2016-04-28T13:40:03.482Z,7700
2016-04-28T13:41:03.797Z,7752
2016-04-28T13:42:17.471Z,7700
2016-04-28T13:43:03.646Z,7608
2016-04-28T13:44:03.538Z,7536
2016-04-28T13:45:03.526Z,7468
2016-04-28T13:46:03.529Z,7396
2016-04-28T13:47:03.985Z,7340
2016-04-28T13:48:03.612Z,7288